Hlavní strana
METAR-TAF:

METAR-TAF

Letiště :

Tanger, Maroko

zeměpisná šířka: 35-44N, zeměpisná délka: 005-54W, výška: 19 m

Aktuální stav počasí

Zpráva byla vytvořena před 29 minutami, v 18:00 UTC
Západní vítr 4 kt
Teplota 15°C
Vlhkost vzduchu 88%
Tlak 1016 hPa
Viditelnost 10 km a více
Polojasno ve výšce 1300 ft
Polojasno ve výšce 10000 ft

METAR: GMTT 071800Z 28004KT 9999 SCT013 SCT100 15/13 Q1016 NOSIG

Čas: 19:29 (18:29 UTC)

Předpověď počasí

Zpráva byla vytvořena před 1 hodinou a 29 minutami, v 17:00 UTC
Předpověď platná od 07 v 18 UTC do 08 v 24 UTC
Západoseverozápadní vítr 5 kt
Viditelnost 10 km a více
Skoro jasno ve výšce 1300 ft
Polojasno ve výšce 3300 ft
Pravděpodobnost 40% :
Dočasný
od 07 v 23 UTC do 08 v 07 UTC
Viditelnost: 3000 m
Oblačno až skoro zataženo ve výšce 1500 ft
Oblačno až skoro zataženo ve výšce 2500 ft
déšť

TAF: GMTT 071700Z 0718/0824 29005KT 9999 FEW013 SCT033 PROB40 TEMPO 0723/0807 3000 RA BKN015 BKN025

Stav a předpovědi počasí z více než 4 000 letišť (zprávy METAR a TAF).

Červené a žluté tečky na mapě představují dostupné meteorologické stanice.

Když kurzor umístíte na tečku, zobrazí se název stanice.

Pak kliknutím zobrazíte stav a předpověď počasí.

Chcete-li změnit mapu, kliknutím na zelené tlačítko se znaménkem +mapu přiblížíte, kliknutím na zelené tlačítko se znaménkem – mapu oddálíte a kliknutím na zelené šipky přejdete na sousední mapy.


METAR-TAF: